sensor_id;sensor_type;location;lat;lon;timestamp;P1;durP1;ratioP1;P2;durP2;ratioP2
28158;SDS011;15447;50.828;4.406;2023-10-13T05:30:34;31.63;;;10.13;;
28158;SDS011;15447;50.828;4.406;2023-10-13T05:33:18;24.75;;;10.52;;
28158;SDS011;15447;50.828;4.406;2023-10-13T05:36:19;30.63;;;10.13;;
28158;SDS011;15447;50.828;4.406;2023-10-13T05:39:03;29.13;;;9.18;;
28158;SDS011;15447;50.828;4.406;2023-10-13T05:41:47;23.63;;;9.70;;
28158;SDS011;15447;50.828;4.406;2023-10-13T05:44:32;22.35;;;9.73;;
28158;SDS011;15447;50.828;4.406;2023-10-13T05:47:18;40.15;;;10.05;;
28158;SDS011;15447;50.828;4.406;2023-10-13T05:50:02;27.83;;;10.20;;
28158;SDS011;15447;50.828;4.406;2023-10-13T05:52:38;36.05;;;10.07;;
28158;SDS011;15447;50.828;4.406;2023-10-13T05:58:11;31.02;;;9.15;;
28158;SDS011;15447;50.828;4.406;2023-10-13T06:00:55;29.90;;;9.88;;
28158;SDS011;15447;50.828;4.406;2023-10-13T06:03:39;30.65;;;9.85;;
28158;SDS011;15447;50.828;4.406;2023-10-13T06:06:24;30.60;;;8.38;;
28158;SDS011;15447;50.828;4.406;2023-10-13T06:09:08;30.52;;;10.07;;
28158;SDS011;15447;50.828;4.406;2023-10-13T06:15:06;26.02;;;9.02;;
28158;SDS011;15447;50.828;4.406;2023-10-13T06:21:07;26.58;;;9.18;;
28158;SDS011;15447;50.828;4.406;2023-10-13T06:23:54;16.33;;;7.25;;
28158;SDS011;15447;50.828;4.406;2023-10-13T06:26:52;30.20;;;8.35;;
28158;SDS011;15447;50.828;4.406;2023-10-13T06:30:10;28.35;;;8.10;;
28158;SDS011;15447;50.828;4.406;2023-10-13T06:33:03;30.65;;;8.20;;
28158;SDS011;15447;50.828;4.406;2023-10-13T06:35:49;21.95;;;7.50;;
28158;SDS011;15447;50.828;4.406;2023-10-13T06:38:41;23.80;;;7.65;;
28158;SDS011;15447;50.828;4.406;2023-10-13T06:41:44;24.92;;;8.23;;
28158;SDS011;15447;50.828;4.406;2023-10-13T06:44:23;20.23;;;7.35;;
28158;SDS011;15447;50.828;4.406;2023-10-13T06:47:25;19.08;;;7.82;;
28158;SDS011;15447;50.828;4.406;2023-10-13T06:49:58;23.55;;;8.30;;
28158;SDS011;15447;50.828;4.406;2023-10-13T06:52:48;28.30;;;7.50;;
28158;SDS011;15447;50.828;4.406;2023-10-13T06:55:14;23.05;;;7.38;;
28158;SDS011;15447;50.828;4.406;2023-10-13T06:57:48;21.60;;;7.65;;
28158;SDS011;15447;50.828;4.406;2023-10-13T07:00:17;18.10;;;7.15;;
28158;SDS011;15447;50.828;4.406;2023-10-13T07:02:59;18.15;;;6.43;;
28158;SDS011;15447;50.828;4.406;2023-10-13T07:05:38;18.15;;;6.35;;
28158;SDS011;15447;50.828;4.406;2023-10-13T07:08:07;20.00;;;6.28;;
28158;SDS011;15447;50.828;4.406;2023-10-13T07:10:34;16.13;;;6.72;;
28158;SDS011;15447;50.828;4.406;2023-10-13T07:13:18;15.30;;;6.38;;
28158;SDS011;15447;50.828;4.406;2023-10-13T07:15:45;23.83;;;6.80;;
28158;SDS011;15447;50.828;4.406;2023-10-13T07:18:14;17.88;;;6.53;;
28158;SDS011;15447;50.828;4.406;2023-10-13T07:20:43;20.38;;;6.70;;
28158;SDS011;15447;50.828;4.406;2023-10-13T07:23:12;20.60;;;6.57;;
28158;SDS011;15447;50.828;4.406;2023-10-13T07:25:51;25.02;;;6.38;;
28158;SDS011;15447;50.828;4.406;2023-10-13T07:28:19;18.63;;;6.43;;
28158;SDS011;15447;50.828;4.406;2023-10-13T07:30:45;20.35;;;6.78;;
28158;SDS011;15447;50.828;4.406;2023-10-13T07:33:20;23.50;;;6.82;;
28158;SDS011;15447;50.828;4.406;2023-10-13T07:35:58;20.48;;;6.07;;
28158;SDS011;15447;50.828;4.406;2023-10-13T07:38:48;18.40;;;7.13;;
28158;SDS011;15447;50.828;4.406;2023-10-13T07:41:24;22.67;;;6.35;;
28158;SDS011;15447;50.828;4.406;2023-10-13T07:43:55;23.05;;;6.32;;
28158;SDS011;15447;50.828;4.406;2023-10-13T07:46:22;26.10;;;6.38;;
28158;SDS011;15447;50.828;4.406;2023-10-13T07:48:56;19.88;;;6.47;;
28158;SDS011;15447;50.828;4.406;2023-10-13T07:51:33;17.92;;;6.50;;
28158;SDS011;15447;50.828;4.406;2023-10-13T07:54:09;17.85;;;6.60;;
28158;SDS011;15447;50.828;4.406;2023-10-13T07:56:38;16.92;;;6.25;;
28158;SDS011;15447;50.828;4.406;2023-10-13T07:59:04;17.17;;;6.30;;
28158;SDS011;15447;50.828;4.406;2023-10-13T08:01:34;17.88;;;6.45;;
28158;SDS011;15447;50.828;4.406;2023-10-13T08:04:00;18.92;;;6.07;;
28158;SDS011;15447;50.828;4.406;2023-10-13T08:06:39;15.63;;;6.55;;
28158;SDS011;15447;50.828;4.406;2023-10-13T08:09:06;13.85;;;5.90;;
28158;SDS011;15447;50.828;4.406;2023-10-13T08:11:52;21.35;;;5.95;;
28158;SDS011;15447;50.828;4.406;2023-10-13T08:14:19;14.98;;;5.53;;
28158;SDS011;15447;50.828;4.406;2023-10-13T08:16:58;18.48;;;6.55;;
28158;SDS011;15447;50.828;4.406;2023-10-13T08:19:29;24.17;;;6.90;;
28158;SDS011;15447;50.828;4.406;2023-10-13T08:22:15;22.23;;;6.15;;
28158;SDS011;15447;50.828;4.406;2023-10-13T08:24:44;17.40;;;5.90;;
28158;SDS011;15447;50.828;4.406;2023-10-13T08:27:10;21.45;;;6.30;;
28158;SDS011;15447;50.828;4.406;2023-10-13T08:29:40;21.70;;;6.53;;
28158;SDS011;15447;50.828;4.406;2023-10-13T08:32:19;20.42;;;6.57;;
28158;SDS011;15447;50.828;4.406;2023-10-13T08:34:54;27.60;;;7.20;;
28158;SDS011;15447;50.828;4.406;2023-10-13T08:37:24;18.02;;;6.70;;
28158;SDS011;15447;50.828;4.406;2023-10-13T08:39:57;18.88;;;6.30;;
28158;SDS011;15447;50.828;4.406;2023-10-13T08:42:26;21.60;;;6.80;;
28158;SDS011;15447;50.828;4.406;2023-10-13T08:45:11;18.30;;;6.68;;
28158;SDS011;15447;50.828;4.406;2023-10-13T08:47:53;18.55;;;6.28;;
28158;SDS011;15447;50.828;4.406;2023-10-13T08:50:42;16.77;;;6.47;;
28158;SDS011;15447;50.828;4.406;2023-10-13T08:56:05;20.85;;;6.90;;
28158;SDS011;15447;50.828;4.406;2023-10-13T08:58:46;19.27;;;6.72;;
28158;SDS011;15447;50.828;4.406;2023-10-13T09:01:19;20.20;;;6.00;;
28158;SDS011;15447;50.828;4.406;2023-10-13T09:04:07;19.60;;;7.30;;
28158;SDS011;15447;50.828;4.406;2023-10-13T09:06:57;19.05;;;6.53;;
28158;SDS011;15447;50.828;4.406;2023-10-13T09:12:17;22.25;;;6.30;;
28158;SDS011;15447;50.828;4.406;2023-10-13T09:14:57;20.02;;;7.32;;
28158;SDS011;15447;50.828;4.406;2023-10-13T09:17:42;18.38;;;6.47;;
28158;SDS011;15447;50.828;4.406;2023-10-13T09:20:16;18.48;;;7.50;;
28158;SDS011;15447;50.828;4.406;2023-10-13T09:23:08;22.08;;;7.85;;
28158;SDS011;15447;50.828;4.406;2023-10-13T09:25:48;20.70;;;7.18;;
28158;SDS011;15447;50.828;4.406;2023-10-13T09:28:34;20.95;;;7.50;;
28158;SDS011;15447;50.828;4.406;2023-10-13T09:31:02;18.85;;;6.25;;
28158;SDS011;15447;50.828;4.406;2023-10-13T09:33:32;21.95;;;7.43;;
28158;SDS011;15447;50.828;4.406;2023-10-13T09:36:01;18.35;;;6.47;;
28158;SDS011;15447;50.828;4.406;2023-10-13T09:38:33;15.50;;;6.37;;
28158;SDS011;15447;50.828;4.406;2023-10-13T09:41:02;25.75;;;7.15;;
28158;SDS011;15447;50.828;4.406;2023-10-13T09:43:49;17.77;;;6.55;;
28158;SDS011;15447;50.828;4.406;2023-10-13T09:46:20;22.85;;;7.22;;
28158;SDS011;15447;50.828;4.406;2023-10-13T09:48:49;23.73;;;7.57;;
28158;SDS011;15447;50.828;4.406;2023-10-13T09:51:29;18.25;;;6.53;;
28158;SDS011;15447;50.828;4.406;2023-10-13T09:54:03;20.75;;;6.47;;
28158;SDS011;15447;50.828;4.406;2023-10-13T09:56:34;20.63;;;6.50;;
28158;SDS011;15447;50.828;4.406;2023-10-13T09:59:17;22.77;;;7.55;;
28158;SDS011;15447;50.828;4.406;2023-10-13T10:01:48;17.00;;;7.30;;
28158;SDS011;15447;50.828;4.406;2023-10-13T10:04:16;18.10;;;6.78;;
28158;SDS011;15447;50.828;4.406;2023-10-13T10:06:53;22.33;;;6.75;;
28158;SDS011;15447;50.828;4.406;2023-10-13T10:09:26;15.93;;;6.78;;
28158;SDS011;15447;50.828;4.406;2023-10-13T10:17:53;22.40;;;6.50;;
28158;SDS011;15447;50.828;4.406;2023-10-13T10:20:27;22.25;;;6.60;;
28158;SDS011;15447;50.828;4.406;2023-10-13T10:23:10;19.42;;;6.93;;
28158;SDS011;15447;50.828;4.406;2023-10-13T10:25:51;21.55;;;6.75;;
28158;SDS011;15447;50.828;4.406;2023-10-13T10:28:20;20.65;;;6.22;;
28158;SDS011;15447;50.828;4.406;2023-10-13T10:30:46;20.45;;;6.28;;
28158;SDS011;15447;50.828;4.406;2023-10-13T10:33:12;28.15;;;6.68;;
28158;SDS011;15447;50.828;4.406;2023-10-13T10:35:42;29.70;;;7.63;;
28158;SDS011;15447;50.828;4.406;2023-10-13T10:40:50;22.08;;;7.03;;
28158;SDS011;15447;50.828;4.406;2023-10-13T10:43:21;24.63;;;6.20;;
28158;SDS011;15447;50.828;4.406;2023-10-13T10:45:51;21.13;;;6.65;;
28158;SDS011;15447;50.828;4.406;2023-10-13T10:48:17;21.42;;;6.47;;
28158;SDS011;15447;50.828;4.406;2023-10-13T10:51:04;25.25;;;7.22;;
28158;SDS011;15447;50.828;4.406;2023-10-13T10:53:39;18.67;;;6.10;;
28158;SDS011;15447;50.828;4.406;2023-10-13T10:56:11;21.60;;;6.60;;
28158;SDS011;15447;50.828;4.406;2023-10-13T10:58:58;21.85;;;6.05;;
28158;SDS011;15447;50.828;4.406;2023-10-13T11:01:27;20.77;;;6.30;;
28158;SDS011;15447;50.828;4.406;2023-10-13T11:04:12;27.63;;;6.80;;
28158;SDS011;15447;50.828;4.406;2023-10-13T11:09:24;23.05;;;7.35;;
28158;SDS011;15447;50.828;4.406;2023-10-13T11:11:51;30.08;;;7.00;;
28158;SDS011;15447;50.828;4.406;2023-10-13T11:16:49;25.85;;;7.35;;
28158;SDS011;15447;50.828;4.406;2023-10-13T11:19:39;25.77;;;7.57;;
28158;SDS011;15447;50.828;4.406;2023-10-13T11:22:16;20.75;;;6.95;;
28158;SDS011;15447;50.828;4.406;2023-10-13T11:25:00;23.60;;;6.88;;
28158;SDS011;15447;50.828;4.406;2023-10-13T11:27:34;26.00;;;7.65;;
28158;SDS011;15447;50.828;4.406;2023-10-13T11:30:23;27.90;;;6.57;;
28158;SDS011;15447;50.828;4.406;2023-10-13T11:33:24;22.88;;;6.97;;
28158;SDS011;15447;50.828;4.406;2023-10-13T11:38:39;25.77;;;6.95;;
28158;SDS011;15447;50.828;4.406;2023-10-13T11:41:13;20.80;;;7.20;;
28158;SDS011;15447;50.828;4.406;2023-10-13T11:43:46;33.90;;;7.25;;
28158;SDS011;15447;50.828;4.406;2023-10-13T11:49:00;23.50;;;6.85;;
28158;SDS011;15447;50.828;4.406;2023-10-13T11:51:39;26.25;;;6.40;;
28158;SDS011;15447;50.828;4.406;2023-10-13T11:54:14;25.17;;;7.32;;
28158;SDS011;15447;50.828;4.406;2023-10-13T11:56:41;19.73;;;5.88;;
28158;SDS011;15447;50.828;4.406;2023-10-13T11:59:07;21.25;;;6.93;;
28158;SDS011;15447;50.828;4.406;2023-10-13T12:01:41;17.92;;;6.10;;
28158;SDS011;15447;50.828;4.406;2023-10-13T12:04:26;25.55;;;6.32;;
28158;SDS011;15447;50.828;4.406;2023-10-13T12:07:11;22.70;;;6.50;;
28158;SDS011;15447;50.828;4.406;2023-10-13T12:09:42;20.02;;;6.18;;
28158;SDS011;15447;50.828;4.406;2023-10-13T12:12:20;23.60;;;6.70;;
28158;SDS011;15447;50.828;4.406;2023-10-13T12:14:53;23.48;;;6.45;;
28158;SDS011;15447;50.828;4.406;2023-10-13T12:17:21;23.42;;;6.18;;
28158;SDS011;15447;50.828;4.406;2023-10-13T12:20:02;20.50;;;6.18;;
28158;SDS011;15447;50.828;4.406;2023-10-13T12:22:37;16.40;;;6.00;;
28158;SDS011;15447;50.828;4.406;2023-10-13T12:25:08;14.32;;;5.90;;
28158;SDS011;15447;50.828;4.406;2023-10-13T12:27:52;24.40;;;6.53;;
28158;SDS011;15447;50.828;4.406;2023-10-13T12:30:38;15.45;;;5.43;;
28158;SDS011;15447;50.828;4.406;2023-10-13T12:33:18;28.75;;;6.90;;
28158;SDS011;15447;50.828;4.406;2023-10-13T12:35:59;22.13;;;6.53;;
28158;SDS011;15447;50.828;4.406;2023-10-13T12:38:58;24.20;;;6.70;;
28158;SDS011;15447;50.828;4.406;2023-10-13T12:41:33;15.90;;;5.93;;
28158;SDS011;15447;50.828;4.406;2023-10-13T12:44:17;22.63;;;6.38;;
28158;SDS011;15447;50.828;4.406;2023-10-13T12:47:01;21.58;;;5.95;;
28158;SDS011;15447;50.828;4.406;2023-10-13T12:49:45;19.75;;;6.03;;
28158;SDS011;15447;50.828;4.406;2023-10-13T12:52:14;20.02;;;6.88;;
28158;SDS011;15447;50.828;4.406;2023-10-13T12:54:44;16.50;;;6.05;;
28158;SDS011;15447;50.828;4.406;2023-10-13T12:57:32;19.17;;;6.47;;
28158;SDS011;15447;50.828;4.406;2023-10-13T12:59:58;19.75;;;5.63;;
28158;SDS011;15447;50.828;4.406;2023-10-13T13:02:24;18.83;;;5.75;;
28158;SDS011;15447;50.828;4.406;2023-10-13T13:04:54;21.10;;;6.53;;
28158;SDS011;15447;50.828;4.406;2023-10-13T13:07:36;15.57;;;5.95;;
28158;SDS011;15447;50.828;4.406;2023-10-13T13:10:25;20.50;;;6.80;;
28158;SDS011;15447;50.828;4.406;2023-10-13T13:13:00;14.63;;;5.00;;
28158;SDS011;15447;50.828;4.406;2023-10-13T13:15:26;15.73;;;6.00;;
28158;SDS011;15447;50.828;4.406;2023-10-13T13:17:52;14.60;;;5.63;;
28158;SDS011;15447;50.828;4.406;2023-10-13T13:20:18;17.88;;;5.63;;
28158;SDS011;15447;50.828;4.406;2023-10-13T13:22:54;13.60;;;6.22;;
28158;SDS011;15447;50.828;4.406;2023-10-13T13:25:20;17.80;;;5.82;;
28158;SDS011;15447;50.828;4.406;2023-10-13T13:27:58;15.52;;;5.78;;
28158;SDS011;15447;50.828;4.406;2023-10-13T13:30:29;16.63;;;5.65;;
28158;SDS011;15447;50.828;4.406;2023-10-13T13:32:59;15.63;;;6.00;;
28158;SDS011;15447;50.828;4.406;2023-10-13T13:35:29;17.02;;;6.20;;
28158;SDS011;15447;50.828;4.406;2023-10-13T13:37:59;16.40;;;5.38;;
28158;SDS011;15447;50.828;4.406;2023-10-13T13:40:34;14.00;;;5.40;;
28158;SDS011;15447;50.828;4.406;2023-10-13T13:43:03;18.50;;;6.35;;
28158;SDS011;15447;50.828;4.406;2023-10-13T13:45:29;15.45;;;5.88;;
28158;SDS011;15447;50.828;4.406;2023-10-13T13:47:57;16.65;;;6.25;;
28158;SDS011;15447;50.828;4.406;2023-10-13T13:50:23;18.38;;;6.18;;
28158;SDS011;15447;50.828;4.406;2023-10-13T13:52:55;19.30;;;6.10;;
28158;SDS011;15447;50.828;4.406;2023-10-13T13:55:25;14.80;;;6.25;;
28158;SDS011;15447;50.828;4.406;2023-10-13T13:57:56;15.70;;;5.85;;
28158;SDS011;15447;50.828;4.406;2023-10-13T14:00:22;16.02;;;5.10;;
28158;SDS011;15447;50.828;4.406;2023-10-13T14:03:10;15.77;;;5.60;;
28158;SDS011;15447;50.828;4.406;2023-10-13T14:05:56;16.95;;;5.30;;
28158;SDS011;15447;50.828;4.406;2023-10-13T14:08:26;14.50;;;6.10;;
28158;SDS011;15447;50.828;4.406;2023-10-13T14:10:52;13.27;;;5.57;;
28158;SDS011;15447;50.828;4.406;2023-10-13T14:13:36;22.50;;;5.70;;
28158;SDS011;15447;50.828;4.406;2023-10-13T14:16:16;17.02;;;6.47;;
28158;SDS011;15447;50.828;4.406;2023-10-13T14:18:46;15.27;;;6.03;;
28158;SDS011;15447;50.828;4.406;2023-10-13T14:21:12;18.50;;;6.90;;
28158;SDS011;15447;50.828;4.406;2023-10-13T14:23:47;15.57;;;6.13;;
28158;SDS011;15447;50.828;4.406;2023-10-13T14:26:15;14.43;;;5.53;;
28158;SDS011;15447;50.828;4.406;2023-10-13T14:28:50;15.73;;;5.75;;
28158;SDS011;15447;50.828;4.406;2023-10-13T14:31:29;17.33;;;6.00;;
28158;SDS011;15447;50.828;4.406;2023-10-13T14:33:56;18.13;;;5.80;;
28158;SDS011;15447;50.828;4.406;2023-10-13T14:36:24;17.88;;;6.22;;
28158;SDS011;15447;50.828;4.406;2023-10-13T14:39:10;17.35;;;6.05;;
28158;SDS011;15447;50.828;4.406;2023-10-13T14:41:39;11.73;;;5.50;;
28158;SDS011;15447;50.828;4.406;2023-10-13T14:44:05;18.80;;;6.07;;
28158;SDS011;15447;50.828;4.406;2023-10-13T14:46:32;17.15;;;7.22;;
28158;SDS011;15447;50.828;4.406;2023-10-13T14:49:01;17.80;;;5.82;;
28158;SDS011;15447;50.828;4.406;2023-10-13T14:51:27;15.25;;;5.78;;
28158;SDS011;15447;50.828;4.406;2023-10-13T14:53:57;14.55;;;5.53;;
28158;SDS011;15447;50.828;4.406;2023-10-13T14:56:29;15.18;;;5.95;;
28158;SDS011;15447;50.828;4.406;2023-10-13T14:58:54;21.48;;;6.43;;
28158;SDS011;15447;50.828;4.406;2023-10-13T15:01:20;15.65;;;5.88;;
28158;SDS011;15447;50.828;4.406;2023-10-13T15:03:49;15.13;;;6.18;;
28158;SDS011;15447;50.828;4.406;2023-10-13T15:06:24;12.75;;;6.18;;
28158;SDS011;15447;50.828;4.406;2023-10-13T15:08:55;16.00;;;5.93;;
28158;SDS011;15447;50.828;4.406;2023-10-13T15:11:22;15.88;;;6.18;;
28158;SDS011;15447;50.828;4.406;2023-10-13T15:14:05;18.83;;;5.55;;
28158;SDS011;15447;50.828;4.406;2023-10-13T15:16:34;14.98;;;5.93;;
28158;SDS011;15447;50.828;4.406;2023-10-13T15:18:59;12.73;;;6.32;;
28158;SDS011;15447;50.828;4.406;2023-10-13T15:21:28;14.82;;;5.88;;
28158;SDS011;15447;50.828;4.406;2023-10-13T15:23:59;21.33;;;6.63;;
28158;SDS011;15447;50.828;4.406;2023-10-13T15:26:47;14.27;;;5.78;;
28158;SDS011;15447;50.828;4.406;2023-10-13T15:29:22;17.15;;;6.40;;
28158;SDS011;15447;50.828;4.406;2023-10-13T15:31:51;14.25;;;5.70;;
28158;SDS011;15447;50.828;4.406;2023-10-13T15:34:23;16.13;;;6.32;;
28158;SDS011;15447;50.828;4.406;2023-10-13T15:36:51;19.75;;;6.72;;
28158;SDS011;15447;50.828;4.406;2023-10-13T15:39:17;17.35;;;6.07;;
28158;SDS011;15447;50.828;4.406;2023-10-13T15:41:48;16.42;;;5.95;;
28158;SDS011;15447;50.828;4.406;2023-10-13T15:44:23;14.73;;;5.57;;
28158;SDS011;15447;50.828;4.406;2023-10-13T15:46:53;17.40;;;5.90;;
28158;SDS011;15447;50.828;4.406;2023-10-13T15:49:20;17.00;;;6.25;;
28158;SDS011;15447;50.828;4.406;2023-10-13T15:51:47;19.40;;;6.30;;
28158;SDS011;15447;50.828;4.406;2023-10-13T15:54:13;17.17;;;6.38;;
28158;SDS011;15447;50.828;4.406;2023-10-13T15:56:42;18.73;;;5.40;;
28158;SDS011;15447;50.828;4.406;2023-10-13T15:59:08;20.30;;;6.45;;
28158;SDS011;15447;50.828;4.406;2023-10-13T16:01:34;20.52;;;6.22;;
28158;SDS011;15447;50.828;4.406;2023-10-13T16:04:00;20.23;;;6.20;;
28158;SDS011;15447;50.828;4.406;2023-10-13T16:06:35;18.73;;;6.43;;
28158;SDS011;15447;50.828;4.406;2023-10-13T16:09:11;19.15;;;6.28;;
28158;SDS011;15447;50.828;4.406;2023-10-13T16:11:40;15.95;;;6.38;;
28158;SDS011;15447;50.828;4.406;2023-10-13T16:14:07;13.85;;;6.22;;
28158;SDS011;15447;50.828;4.406;2023-10-13T16:16:35;13.57;;;5.45;;
28158;SDS011;15447;50.828;4.406;2023-10-13T16:19:02;18.30;;;6.63;;
28158;SDS011;15447;50.828;4.406;2023-10-13T16:21:32;13.70;;;6.70;;
28158;SDS011;15447;50.828;4.406;2023-10-13T16:24:04;19.90;;;6.05;;
28158;SDS011;15447;50.828;4.406;2023-10-13T16:26:31;15.30;;;6.25;;
28158;SDS011;15447;50.828;4.406;2023-10-13T16:28:57;14.85;;;6.75;;
28158;SDS011;15447;50.828;4.406;2023-10-13T16:31:24;18.27;;;5.75;;
28158;SDS011;15447;50.828;4.406;2023-10-13T16:33:53;18.20;;;6.57;;
28158;SDS011;15447;50.828;4.406;2023-10-13T16:36:27;19.50;;;6.65;;
28158;SDS011;15447;50.828;4.406;2023-10-13T16:38:53;19.65;;;7.25;;
28158;SDS011;15447;50.828;4.406;2023-10-13T16:41:23;13.30;;;6.63;;
28158;SDS011;15447;50.828;4.406;2023-10-13T16:43:49;19.75;;;6.75;;
28158;SDS011;15447;50.828;4.406;2023-10-13T16:46:15;16.85;;;6.95;;
28158;SDS011;15447;50.828;4.406;2023-10-13T16:48:42;20.35;;;6.70;;
28158;SDS011;15447;50.828;4.406;2023-10-13T16:51:08;20.92;;;7.55;;
28158;SDS011;15447;50.828;4.406;2023-10-13T16:53:42;17.92;;;6.63;;
28158;SDS011;15447;50.828;4.406;2023-10-13T16:56:12;20.42;;;7.68;;
28158;SDS011;15447;50.828;4.406;2023-10-13T16:58:38;18.17;;;6.80;;
28158;SDS011;15447;50.828;4.406;2023-10-13T17:01:13;16.90;;;7.28;;
28158;SDS011;15447;50.828;4.406;2023-10-13T17:03:41;18.17;;;6.65;;
28158;SDS011;15447;50.828;4.406;2023-10-13T17:06:12;17.80;;;6.75;;
28158;SDS011;15447;50.828;4.406;2023-10-13T17:08:39;17.33;;;6.57;;
28158;SDS011;15447;50.828;4.406;2023-10-13T17:11:14;20.40;;;7.88;;
28158;SDS011;15447;50.828;4.406;2023-10-13T17:13:42;21.52;;;7.65;;
28158;SDS011;15447;50.828;4.406;2023-10-13T17:16:14;16.00;;;7.25;;
28158;SDS011;15447;50.828;4.406;2023-10-13T17:18:42;15.48;;;7.35;;
28158;SDS011;15447;50.828;4.406;2023-10-13T17:21:16;18.58;;;7.30;;
28158;SDS011;15447;50.828;4.406;2023-10-13T17:23:43;23.38;;;6.97;;
28158;SDS011;15447;50.828;4.406;2023-10-13T17:26:15;23.98;;;7.57;;
28158;SDS011;15447;50.828;4.406;2023-10-13T17:28:52;15.02;;;6.55;;
28158;SDS011;15447;50.828;4.406;2023-10-13T17:31:23;21.63;;;7.93;;
28158;SDS011;15447;50.828;4.406;2023-10-13T17:33:52;20.00;;;6.93;;
28158;SDS011;15447;50.828;4.406;2023-10-13T17:36:18;26.30;;;7.75;;
28158;SDS011;15447;50.828;4.406;2023-10-13T17:38:43;20.45;;;6.88;;
28158;SDS011;15447;50.828;4.406;2023-10-13T17:41:13;19.73;;;6.97;;
28158;SDS011;15447;50.828;4.406;2023-10-13T17:43:39;19.20;;;7.15;;
28158;SDS011;15447;50.828;4.406;2023-10-13T17:48:35;22.80;;;7.78;;
28158;SDS011;15447;50.828;4.406;2023-10-13T17:51:05;24.00;;;6.40;;
28158;SDS011;15447;50.828;4.406;2023-10-13T17:53:32;21.92;;;7.18;;
28158;SDS011;15447;50.828;4.406;2023-10-13T17:56:07;20.08;;;6.45;;
28158;SDS011;15447;50.828;4.406;2023-10-13T17:58:37;18.08;;;5.88;;
28158;SDS011;15447;50.828;4.406;2023-10-13T18:01:08;18.48;;;6.60;;
28158;SDS011;15447;50.828;4.406;2023-10-13T18:03:34;14.77;;;6.40;;
28158;SDS011;15447;50.828;4.406;2023-10-13T18:06:04;21.20;;;7.15;;
28158;SDS011;15447;50.828;4.406;2023-10-13T18:08:30;17.27;;;6.88;;
28158;SDS011;15447;50.828;4.406;2023-10-13T18:10:57;15.55;;;6.30;;
28158;SDS011;15447;50.828;4.406;2023-10-13T18:13:24;17.73;;;7.35;;
28158;SDS011;15447;50.828;4.406;2023-10-13T18:15:50;23.85;;;7.35;;
28158;SDS011;15447;50.828;4.406;2023-10-13T18:18:15;22.95;;;7.40;;
28158;SDS011;15447;50.828;4.406;2023-10-13T18:20:41;22.55;;;7.32;;
28158;SDS011;15447;50.828;4.406;2023-10-13T18:23:07;26.67;;;9.23;;
28158;SDS011;15447;50.828;4.406;2023-10-13T18:25:36;23.00;;;8.93;;
28158;SDS011;15447;50.828;4.406;2023-10-13T18:28:07;20.08;;;10.30;;
28158;SDS011;15447;50.828;4.406;2023-10-13T18:30:35;20.38;;;8.77;;
28158;SDS011;15447;50.828;4.406;2023-10-13T18:33:03;20.70;;;9.07;;
28158;SDS011;15447;50.828;4.406;2023-10-13T18:35:32;24.52;;;9.50;;
28158;SDS011;15447;50.828;4.406;2023-10-13T18:37:57;25.98;;;9.23;;
28158;SDS011;15447;50.828;4.406;2023-10-13T18:40:29;17.23;;;8.45;;
28158;SDS011;15447;50.828;4.406;2023-10-13T18:42:57;25.70;;;9.30;;
28158;SDS011;15447;50.828;4.406;2023-10-13T18:45:23;28.05;;;9.52;;
28158;SDS011;15447;50.828;4.406;2023-10-13T18:47:53;22.85;;;9.57;;
28158;SDS011;15447;50.828;4.406;2023-10-13T18:50:19;24.08;;;8.63;;
28158;SDS011;15447;50.828;4.406;2023-10-13T18:52:45;26.30;;;9.18;;
28158;SDS011;15447;50.828;4.406;2023-10-13T18:55:11;24.70;;;9.55;;
28158;SDS011;15447;50.828;4.406;2023-10-13T18:57:41;28.38;;;8.98;;
28158;SDS011;15447;50.828;4.406;2023-10-13T19:00:11;21.30;;;9.88;;
28158;SDS011;15447;50.828;4.406;2023-10-13T19:02:41;27.52;;;9.25;;
28158;SDS011;15447;50.828;4.406;2023-10-13T19:05:07;19.30;;;8.20;;
28158;SDS011;15447;50.828;4.406;2023-10-13T19:07:35;23.83;;;8.82;;
28158;SDS011;15447;50.828;4.406;2023-10-13T19:10:02;22.10;;;8.85;;
28158;SDS011;15447;50.828;4.406;2023-10-13T19:12:39;23.27;;;8.48;;
28158;SDS011;15447;50.828;4.406;2023-10-13T19:15:09;22.90;;;8.45;;
28158;SDS011;15447;50.828;4.406;2023-10-13T19:17:40;18.45;;;8.30;;
28158;SDS011;15447;50.828;4.406;2023-10-13T19:20:06;25.27;;;8.10;;
28158;SDS011;15447;50.828;4.406;2023-10-13T19:22:33;23.00;;;8.10;;
28158;SDS011;15447;50.828;4.406;2023-10-13T19:24:59;20.08;;;7.63;;
28158;SDS011;15447;50.828;4.406;2023-10-13T19:27:24;24.92;;;8.48;;
28158;SDS011;15447;50.828;4.406;2023-10-13T19:29:52;19.65;;;7.53;;
28158;SDS011;15447;50.828;4.406;2023-10-13T19:32:18;18.90;;;8.40;;
28158;SDS011;15447;50.828;4.406;2023-10-13T19:34:43;30.50;;;8.15;;
28158;SDS011;15447;50.828;4.406;2023-10-13T19:37:09;20.33;;;7.57;;
28158;SDS011;15447;50.828;4.406;2023-10-13T19:39:35;24.08;;;7.53;;
28158;SDS011;15447;50.828;4.406;2023-10-13T19:42:06;19.45;;;7.82;;
28158;SDS011;15447;50.828;4.406;2023-10-13T19:44:35;21.77;;;7.85;;
28158;SDS011;15447;50.828;4.406;2023-10-13T19:47:01;18.42;;;7.53;;
28158;SDS011;15447;50.828;4.406;2023-10-13T19:49:27;18.63;;;7.10;;
28158;SDS011;15447;50.828;4.406;2023-10-13T19:51:52;17.75;;;7.80;;
28158;SDS011;15447;50.828;4.406;2023-10-13T19:54:22;18.90;;;7.32;;
28158;SDS011;15447;50.828;4.406;2023-10-13T19:56:48;20.67;;;7.60;;
28158;SDS011;15447;50.828;4.406;2023-10-13T19:59:16;24.35;;;7.70;;
28158;SDS011;15447;50.828;4.406;2023-10-13T20:01:43;26.52;;;8.25;;
28158;SDS011;15447;50.828;4.406;2023-10-13T20:04:10;21.10;;;7.03;;
28158;SDS011;15447;50.828;4.406;2023-10-13T20:06:38;13.30;;;6.75;;
28158;SDS011;15447;50.828;4.406;2023-10-13T20:09:05;19.00;;;7.18;;
28158;SDS011;15447;50.828;4.406;2023-10-13T20:11:38;17.35;;;7.82;;
28158;SDS011;15447;50.828;4.406;2023-10-13T20:14:03;25.90;;;8.00;;
28158;SDS011;15447;50.828;4.406;2023-10-13T20:16:29;17.30;;;7.40;;
28158;SDS011;15447;50.828;4.406;2023-10-13T20:18:58;17.40;;;7.00;;
28158;SDS011;15447;50.828;4.406;2023-10-13T20:21:24;21.58;;;8.60;;
28158;SDS011;15447;50.828;4.406;2023-10-13T20:23:52;21.70;;;7.97;;
28158;SDS011;15447;50.828;4.406;2023-10-13T20:28:52;21.83;;;7.75;;
28158;SDS011;15447;50.828;4.406;2023-10-13T20:31:18;18.05;;;7.13;;
28158;SDS011;15447;50.828;4.406;2023-10-13T20:33:45;20.92;;;8.05;;
28158;SDS011;15447;50.828;4.406;2023-10-13T20:36:11;24.88;;;7.88;;
28158;SDS011;15447;50.828;4.406;2023-10-13T20:38:37;24.00;;;8.10;;
28158;SDS011;15447;50.828;4.406;2023-10-13T20:41:03;19.08;;;8.50;;
28158;SDS011;15447;50.828;4.406;2023-10-13T20:43:33;19.98;;;7.82;;
28158;SDS011;15447;50.828;4.406;2023-10-13T20:46:04;21.63;;;8.57;;
28158;SDS011;15447;50.828;4.406;2023-10-13T20:48:30;21.23;;;8.35;;
28158;SDS011;15447;50.828;4.406;2023-10-13T20:50:56;22.58;;;7.97;;
28158;SDS011;15447;50.828;4.406;2023-10-13T20:53:26;21.85;;;8.25;;
28158;SDS011;15447;50.828;4.406;2023-10-13T20:56:05;29.58;;;8.27;;
28158;SDS011;15447;50.828;4.406;2023-10-13T20:58:41;25.45;;;9.30;;
28158;SDS011;15447;50.828;4.406;2023-10-13T21:01:21;30.27;;;8.52;;
28158;SDS011;15447;50.828;4.406;2023-10-13T21:03:47;25.23;;;9.23;;
28158;SDS011;15447;50.828;4.406;2023-10-13T21:06:13;17.60;;;7.82;;
28158;SDS011;15447;50.828;4.406;2023-10-13T21:08:42;28.17;;;8.25;;
28158;SDS011;15447;50.828;4.406;2023-10-13T21:11:11;23.30;;;8.40;;
28158;SDS011;15447;50.828;4.406;2023-10-13T21:13:40;22.05;;;8.45;;
28158;SDS011;15447;50.828;4.406;2023-10-13T21:16:06;23.38;;;8.55;;